CheckWX is a tool to help pilots better visualize weather data.  It is not intended as a substitute for an official pre-flight weather briefing.

00:54:13 UTC

KMVE METAR
Montevideo-Chippewa County Airport
Montevideo, Minnesota, USA
Current

18 mins ago

KMVE 240036Z AUTO 14003KT 10SM CLR 07/03 A3009 RMK AO2
Observed
Mar-24 @ 00:36 UTC
Wind
  • 140° at 3 KTS
Visibility
10 SM
Flight Rules
VFR
Cloud Levels
  • Clear skies
Temperature
C / 45°F
Dewpoint
C / 37°F
Humidity
76%
Altimeter
30.09" Hg
Pressure
1018.92 hPa
Previous

38 mins ago

KMVE 240016Z AUTO 18003KT 10SM CLR 07/03 A3010 RMK AO2
Observed
Mar-24 @ 00:16 UTC
Wind
  • 180° at 3 KTS
Visibility
10 SM
Flight Rules
VFR
Cloud Levels
  • Clear skies
Temperature
C / 45°F
Dewpoint
C / 37°F
Humidity
76%
Altimeter
30.1" Hg
Pressure
1019.32 hPa
Previous

59 mins ago

KMVE 232355Z AUTO 18005KT 10SM CLR 08/03 A3010 RMK AO2
Observed
Mar-23 @ 23:55 UTC
Wind
  • 180° at 5 KTS
Visibility
10 SM
Flight Rules
VFR
Cloud Levels
  • Clear skies
Temperature
C / 46°F
Dewpoint
C / 37°F
Humidity
71%
Altimeter
30.1" Hg
Pressure
1019.32 hPa